Current Conditions
Clear
Conditions



Pressure
30.33 (inHG) - 1027.12 (mb)
Visibility

9.9 (miles) - 16.0 (km)
   Temperature
41  °F
Temperature
30  °F
Dewpoint
66  %
 Humidity
   Wind Speed
12  mph
10  kts
19  km/h
5.4  m/s
   Wind Direction
N
45°
E
90°
135°
S
180°
225°
W
270°
315°
 180°

Due South
   Airport Data
KBLV
Scott AFB/Midamerica Airport
Metar :KBLV 021556Z AUTO 18010KT 10SM CLR 05/M01 A3033 RMK AO2 SLP277 T00511009 $
Tue 2nd March 09:56 am
   Raw Metar Info
Raw METAR is the most common format in the world for the transmission of observational weather data. It is highly standardized through the International Civil Aviation Organization (ICAO), which allows it to be understood throughout most of the world.
   API Info
Data Provided by
https://www.checkwx.com/weather/KBLV

Aviation Weather providing METAR, TAF, AIRMET, SIGMET and OUTLOOK Weather Reports
   © Info
CSS/SVG/PHP scripts were developed by weather34.com for use in the weather34 template © 2015-2021

Guide Info provided by Metar-Wikipedia